BHS3262 MYGF-MYNN
Flight info
| Callsign | BHS3262 |
|---|---|
| Flight time | 0h 35m |
| Altitude | 15000 |
| Route | ZFP BR63V HANKX/N0348F140 BR63V ZQA |
| Aircraft | B737/M-SDE2E3FGHIRWXY/LB1 |
Departure
| Time | 2026-05-05 16:58 |
|---|---|
| Airport | Grand Bahama International Airport (MYGF) |
Arrival
| Time | 2026-05-05 17:33 |
|---|---|
| Airport | Lynden Pindling International Airport (MYNN) |
| Time | Latitude | Longitude | Altitude | Speed | Heading |
|---|---|---|---|---|---|
| 2026-05-05 16:58 | 26.51868 | -78.62714 | 3344 ft | 223 kts | 130° |
| 2026-05-05 16:58 | 26.50861 | -78.61465 | 3823 ft | 238 kts | 135° |
| 2026-05-05 16:59 | 26.49678 | -78.60141 | 4337 ft | 254 kts | 136° |
| 2026-05-05 16:59 | 26.48406 | -78.58755 | 4885 ft | 267 kts | 137° |
| 2026-05-05 16:59 | 26.47098 | -78.57320 | 5563 ft | 274 kts | 137° |
| 2026-05-05 16:59 | 26.45764 | -78.55846 | 6338 ft | 276 kts | 136° |
| 2026-05-05 17:00 | 26.44448 | -78.54262 | 7095 ft | 283 kts | 133° |
| 2026-05-05 17:00 | 26.43208 | -78.52567 | 7836 ft | 289 kts | 130° |
| 2026-05-05 17:00 | 26.41987 | -78.50798 | 8601 ft | 295 kts | 129° |
| 2026-05-05 17:00 | 26.40741 | -78.48999 | 9403 ft | 299 kts | 130° |
| 2026-05-05 17:01 | 26.39452 | -78.47169 | 10174 ft | 305 kts | 130° |
| 2026-05-05 17:01 | 26.38106 | -78.45277 | 10667 ft | 321 kts | 130° |
| 2026-05-05 17:01 | 26.36690 | -78.43294 | 11136 ft | 338 kts | 130° |
| 2026-05-05 17:01 | 26.35178 | -78.41180 | 11619 ft | 355 kts | 130° |
| 2026-05-05 17:02 | 26.33620 | -78.39002 | 12086 ft | 370 kts | 130° |
| 2026-05-05 17:02 | 26.32030 | -78.36776 | 12816 ft | 376 kts | 130° |
| 2026-05-05 17:02 | 26.30400 | -78.34493 | 13588 ft | 381 kts | 130° |
| 2026-05-05 17:02 | 26.28758 | -78.32194 | 14279 ft | 388 kts | 130° |
| 2026-05-05 17:03 | 26.27087 | -78.29854 | 14823 ft | 394 kts | 130° |
| 2026-05-05 17:03 | 26.25389 | -78.27475 | 14969 ft | 394 kts | 130° |
| 2026-05-05 17:03 | 26.23691 | -78.25098 | 14988 ft | 394 kts | 130° |
| 2026-05-05 17:03 | 26.22016 | -78.22755 | 14995 ft | 394 kts | 130° |
| 2026-05-05 17:04 | 26.20320 | -78.20383 | 14988 ft | 392 kts | 130° |
| 2026-05-05 17:04 | 26.18623 | -78.18018 | 14984 ft | 393 kts | 130° |
| 2026-05-05 17:04 | 26.16934 | -78.15663 | 14987 ft | 392 kts | 130° |
| 2026-05-05 17:04 | 26.15262 | -78.13333 | 14988 ft | 391 kts | 130° |
| 2026-05-05 17:05 | 26.13579 | -78.10988 | 14984 ft | 391 kts | 130° |
| 2026-05-05 17:05 | 26.11901 | -78.08651 | 14983 ft | 392 kts | 130° |
| 2026-05-05 17:05 | 26.10234 | -78.06327 | 14984 ft | 392 kts | 130° |
| 2026-05-05 17:05 | 26.08530 | -78.03956 | 14967 ft | 392 kts | 130° |
| 2026-05-05 17:06 | 26.06852 | -78.01620 | 14986 ft | 392 kts | 130° |
| 2026-05-05 17:06 | 26.05219 | -77.99348 | 14985 ft | 392 kts | 130° |
| 2026-05-05 17:06 | 26.03568 | -77.97051 | 14986 ft | 392 kts | 130° |
| 2026-05-05 17:06 | 26.01900 | -77.94730 | 14988 ft | 391 kts | 130° |
| 2026-05-05 17:07 | 26.00189 | -77.92353 | 14982 ft | 391 kts | 130° |
| 2026-05-05 17:07 | 25.98500 | -77.90009 | 14984 ft | 392 kts | 130° |
| 2026-05-05 17:07 | 25.96811 | -77.87669 | 14980 ft | 391 kts | 130° |
| 2026-05-05 17:07 | 25.95111 | -77.85315 | 14988 ft | 392 kts | 130° |
| 2026-05-05 17:08 | 25.93395 | -77.82939 | 14984 ft | 392 kts | 130° |
| 2026-05-05 17:08 | 25.91707 | -77.80602 | 14989 ft | 392 kts | 130° |
| 2026-05-05 17:08 | 25.89995 | -77.78232 | 14995 ft | 393 kts | 130° |
| 2026-05-05 17:08 | 25.88302 | -77.75889 | 14985 ft | 393 kts | 130° |
| 2026-05-05 17:09 | 25.86579 | -77.73508 | 14988 ft | 393 kts | 130° |
| 2026-05-05 17:09 | 25.84880 | -77.71162 | 14979 ft | 390 kts | 130° |
| 2026-05-05 17:09 | 25.83258 | -77.68917 | 14969 ft | 372 kts | 130° |
| 2026-05-05 17:09 | 25.81683 | -77.66735 | 14971 ft | 359 kts | 130° |
| 2026-05-05 17:10 | 25.80122 | -77.64580 | 14832 ft | 368 kts | 130° |
| 2026-05-05 17:10 | 25.78514 | -77.62367 | 14449 ft | 367 kts | 130° |
| 2026-05-05 17:10 | 25.76996 | -77.60274 | 14129 ft | 361 kts | 130° |
| 2026-05-05 17:10 | 25.75456 | -77.58153 | 13730 ft | 357 kts | 131° |
| 2026-05-05 17:11 | 25.73932 | -77.56052 | 13297 ft | 355 kts | 131° |
| 2026-05-05 17:11 | 25.72408 | -77.53954 | 12872 ft | 352 kts | 131° |
| 2026-05-05 17:11 | 25.70846 | -77.51913 | 12445 ft | 348 kts | 136° |
| 2026-05-05 17:11 | 25.69037 | -77.50260 | 12025 ft | 338 kts | 154° |
| 2026-05-05 17:12 | 25.66857 | -77.49498 | 11606 ft | 324 kts | 179° |
| 2026-05-05 17:12 | 25.64719 | -77.49665 | 11201 ft | 314 kts | 196° |
| 2026-05-05 17:12 | 25.62694 | -77.50204 | 10985 ft | 303 kts | 197° |
| 2026-05-05 17:12 | 25.60791 | -77.50710 | 10890 ft | 291 kts | 197° |
| 2026-05-05 17:13 | 25.58857 | -77.51203 | 10771 ft | 280 kts | 197° |
| 2026-05-05 17:13 | 25.57014 | -77.51668 | 10570 ft | 273 kts | 197° |
| 2026-05-05 17:13 | 25.55168 | -77.52135 | 10239 ft | 271 kts | 197° |
| 2026-05-05 17:13 | 25.53339 | -77.52601 | 9893 ft | 270 kts | 197° |
| 2026-05-05 17:14 | 25.51530 | -77.53060 | 9566 ft | 267 kts | 197° |
| 2026-05-05 17:14 | 25.49722 | -77.53519 | 9198 ft | 267 kts | 197° |
| 2026-05-05 17:14 | 25.47909 | -77.53979 | 8859 ft | 266 kts | 196° |
| 2026-05-05 17:14 | 25.46116 | -77.54433 | 8523 ft | 264 kts | 196° |
| 2026-05-05 17:15 | 25.44370 | -77.54874 | 8175 ft | 263 kts | 196° |
| 2026-05-05 17:15 | 25.42622 | -77.55316 | 7821 ft | 263 kts | 196° |
| 2026-05-05 17:15 | 25.40857 | -77.55763 | 7467 ft | 262 kts | 195° |
| 2026-05-05 17:15 | 25.39099 | -77.56208 | 7133 ft | 261 kts | 195° |
| 2026-05-05 17:16 | 25.37337 | -77.56653 | 6784 ft | 262 kts | 195° |
| 2026-05-05 17:16 | 25.35571 | -77.57100 | 6559 ft | 259 kts | 195° |
| 2026-05-05 17:16 | 25.33833 | -77.57539 | 6277 ft | 258 kts | 195° |
| 2026-05-05 17:16 | 25.32077 | -77.57980 | 5969 ft | 258 kts | 195° |
| 2026-05-05 17:17 | 25.30336 | -77.58415 | 5634 ft | 258 kts | 195° |
| 2026-05-05 17:17 | 25.28632 | -77.58843 | 5354 ft | 256 kts | 194° |
| 2026-05-05 17:17 | 25.26948 | -77.59267 | 5044 ft | 255 kts | 194° |
| 2026-05-05 17:17 | 25.25261 | -77.59692 | 4807 ft | 251 kts | 194° |
| 2026-05-05 17:18 | 25.23610 | -77.60107 | 4706 ft | 242 kts | 195° |
| 2026-05-05 17:18 | 25.22013 | -77.60510 | 4605 ft | 232 kts | 194° |
| 2026-05-05 17:18 | 25.20512 | -77.60894 | 4489 ft | 224 kts | 195° |
| 2026-05-05 17:18 | 25.19003 | -77.61230 | 4264 ft | 222 kts | 188° |
| 2026-05-05 17:19 | 25.17467 | -77.61087 | 4024 ft | 224 kts | 160° |
| 2026-05-05 17:19 | 25.16261 | -77.60101 | 3860 ft | 222 kts | 135° |
| 2026-05-05 17:19 | 25.15262 | -77.58850 | 3693 ft | 217 kts | 133° |
| 2026-05-05 17:19 | 25.14263 | -77.57647 | 3520 ft | 213 kts | 136° |
| 2026-05-05 17:20 | 25.13259 | -77.56530 | 3335 ft | 207 kts | 136° |
| 2026-05-05 17:20 | 25.12289 | -77.55461 | 3129 ft | 199 kts | 137° |
| 2026-05-05 17:20 | 25.11354 | -77.54428 | 2769 ft | 201 kts | 135° |
| 2026-05-05 17:20 | 25.10412 | -77.53333 | 2332 ft | 206 kts | 129° |
| 2026-05-05 17:21 | 25.09881 | -77.51938 | 1894 ft | 211 kts | 97° |
| 2026-05-05 17:21 | 25.10159 | -77.50411 | 1628 ft | 210 kts | 61° |
| 2026-05-05 17:21 | 25.11114 | -77.49309 | 1591 ft | 196 kts | 30° |
| 2026-05-05 17:22 | 25.13415 | -77.49533 | 1602 ft | 166 kts | 319° |
| 2026-05-05 17:22 | 25.14310 | -77.50300 | 1604 ft | 160 kts | 320° |
| 2026-05-05 17:22 | 25.15121 | -77.51077 | 1601 ft | 150 kts | 313° |
| 2026-05-05 17:22 | 25.15778 | -77.51836 | 1578 ft | 138 kts | 303° |
| 2026-05-05 17:23 | 25.16174 | -77.52646 | 1552 ft | 124 kts | 283° |
| 2026-05-05 17:23 | 25.16174 | -77.53722 | 1426 ft | 150 kts | 256° |
| 2026-05-05 17:23 | 25.15804 | -77.54711 | 2277 ft | 111 kts | 228° |
| 2026-05-05 17:23 | 25.15267 | -77.55348 | 2533 ft | 134 kts | 224° |
| 2026-05-05 17:24 | 25.14370 | -77.55774 | 2383 ft | 150 kts | 175° |
| 2026-05-05 17:24 | 25.13337 | -77.55617 | 2302 ft | 151 kts | 173° |
| 2026-05-05 17:24 | 25.12343 | -77.55309 | 1976 ft | 146 kts | 155° |
| 2026-05-05 17:24 | 25.11560 | -77.54668 | 1690 ft | 146 kts | 135° |
| 2026-05-05 17:25 | 25.10860 | -77.53836 | 1407 ft | 153 kts | 135° |
| 2026-05-05 17:25 | 25.10367 | -77.53262 | 1239 ft | 166 kts | 134° |
| 2026-05-05 17:25 | 25.09290 | -77.52084 | 864 ft | 152 kts | 140° |
| 2026-05-05 17:25 | 25.08547 | -77.51347 | 656 ft | 141 kts | 138° |
| 2026-05-05 17:26 | 25.07897 | -77.50604 | 449 ft | 133 kts | 134° |
| 2026-05-05 17:26 | 25.07285 | -77.49895 | 399 ft | 128 kts | 139° |
| 2026-05-05 17:26 | 25.06638 | -77.49228 | 355 ft | 134 kts | 139° |
| 2026-05-05 17:26 | 25.05976 | -77.48471 | 278 ft | 142 kts | 135° |
| 2026-05-05 17:27 | 25.05279 | -77.47674 | 94 ft | 148 kts | 139° |
| 2026-05-05 17:27 | 25.04565 | -77.46879 | 33 ft | 129 kts | 136° |
| 2026-05-05 17:27 | 25.03902 | -77.46153 | 24 ft | 137 kts | 136° |
| 2026-05-05 17:27 | 25.03084 | -77.45210 | 400 ft | 159 kts | 128° |
| 2026-05-05 17:28 | 25.02877 | -77.44077 | 1000 ft | 164 kts | 71° |
| 2026-05-05 17:28 | 25.03605 | -77.42988 | 1278 ft | 196 kts | 49° |
| 2026-05-05 17:28 | 25.04542 | -77.41843 | 1390 ft | 203 kts | 45° |
| 2026-05-05 17:28 | 25.05726 | -77.41061 | 1747 ft | 205 kts | 13° |
| 2026-05-05 17:29 | 25.07166 | -77.41103 | 1991 ft | 212 kts | 343° |
| 2026-05-05 17:29 | 25.08538 | -77.41886 | 1493 ft | 237 kts | 319° |
| 2026-05-05 17:29 | 25.09710 | -77.43031 | 1602 ft | 207 kts | 316° |
| 2026-05-05 17:29 | 25.10649 | -77.44096 | 1718 ft | 181 kts | 306° |
| 2026-05-05 17:30 | 25.11244 | -77.45255 | 1597 ft | 166 kts | 285° |
| 2026-05-05 17:30 | 25.11316 | -77.46416 | 1735 ft | 143 kts | 259° |
| 2026-05-05 17:30 | 25.11017 | -77.47454 | 1572 ft | 145 kts | 244° |
| 2026-05-05 17:30 | 25.10538 | -77.48430 | 1265 ft | 151 kts | 238° |
| 2026-05-05 17:31 | 25.10005 | -77.49355 | 1166 ft | 133 kts | 235° |
| 2026-05-05 17:31 | 25.09465 | -77.50190 | 974 ft | 137 kts | 231° |
| 2026-05-05 17:31 | 25.08854 | -77.50977 | 830 ft | 136 kts | 219° |
| 2026-05-05 17:31 | 25.08016 | -77.51386 | 757 ft | 134 kts | 186° |
| 2026-05-05 17:32 | 25.07158 | -77.51122 | 725 ft | 134 kts | 138° |
| 2026-05-05 17:32 | 25.06797 | -77.50220 | 684 ft | 136 kts | 106° |
| 2026-05-05 17:32 | 25.06504 | -77.49242 | 582 ft | 147 kts | 116° |
| 2026-05-05 17:32 | 25.05928 | -77.48352 | 251 ft | 145 kts | 137° |
| 2026-05-05 17:33 | 25.05226 | -77.47628 | 61 ft | 134 kts | 138° |
| 2026-05-05 17:33 | 25.04578 | -77.46906 | 25 ft | 111 kts | 129° |
| 2026-05-05 17:33 | 25.04169 | -77.46407 | 24 ft | 57 kts | 124° |
| 2026-05-05 17:33 | 25.04081 | -77.46098 | 24 ft | 16 kts | 95° |
| 2026-05-05 17:34 | 25.04096 | -77.46108 | 24 ft | 13 kts | 296° |
| 2026-05-05 17:34 | 25.04185 | -77.46211 | 24 ft | 27 kts | 315° |
| 2026-05-05 17:34 | 25.04378 | -77.46419 | 24 ft | 44 kts | 312° |
| 2026-05-05 17:34 | 25.04592 | -77.46658 | 24 ft | 40 kts | 313° |
| 2026-05-05 17:35 | 25.04731 | -77.46700 | 24 ft | 20 kts | 82° |
| 2026-05-05 17:35 | 25.04656 | -77.46600 | 24 ft | 10 kts | 113° |
| 2026-05-05 17:35 | 25.04661 | -77.46554 | 24 ft | 1 kts | 51° |
| 2026-05-05 17:35 | 25.04676 | -77.46550 | 24 ft | 2 kts | 7° |
| 2026-05-05 17:36 | 25.04700 | -77.46550 | 24 ft | 4 kts | 356° |
| 2026-05-05 17:36 | 25.04714 | -77.46551 | 24 ft | 0 kts | 358° |